Time;durP1;ratioP1;P1;durP2;ratioP2;P2;SDS_P1;SDS_P2;PMS_P1;PMS_P2;Temp;Humidity;BMP_temperature;BMP_pressure;BME280_temperature;BME280_humidity;BME280_pressure;Samples;Min_cycle;Max_cycle;Signal;HPM_P1;HPM_P2
2023/08/02 00:02:25;;;;;;;7.22;4.10;;;;;;;24.08;61.64;98874.56;5111381;28;20417;-82
2023/08/02 00:04:50;;;;;;;8.18;4.55;;;;;;;24.03;61.67;98905.56;5111294;28;20062;-82
2023/08/02 00:07:16;;;;;;;6.70;4.63;;;;;;;23.56;61.47;98860.03;5111990;28;20053;-82
2023/08/02 00:09:41;;;;;;;8.30;4.60;;;;;;;23.53;61.44;98881.81;5110927;28;20088;-82
2023/08/02 00:12:07;;;;;;;5.28;3.70;;;;;;;;;;5111472;27;20035;-82
2023/08/02 00:14:32;;;;;;;5.10;3.63;;;;;;;23.57;62.08;98923.63;5111012;28;20386;-81
2023/08/02 00:16:57;;;;;;;7.13;4.20;;;;;;;23.36;62.66;98897.47;5110790;28;20046;-83
2023/08/02 00:19:23;;;;;;;5.90;4.18;;;;;;;23.25;63.41;98905.56;5110419;28;20111;-82
2023/08/02 00:21:49;;;;;;;7.00;3.88;;;;;;;23.47;63.22;98912.75;5109864;28;20108;-82
2023/08/02 00:24:14;;;;;;;5.82;3.63;;;;;;;23.39;63.07;98894.53;5111300;28;20028;-82
2023/08/02 00:26:39;;;;;;;6.35;4.72;;;;;;;23.50;62.71;98898.22;5111126;28;20024;-82
2023/08/02 00:29:05;;;;;;;5.45;4.15;;;;;;;23.43;62.83;98889.75;5108812;28;20488;-82
2023/08/02 00:31:30;;;;;;;5.82;4.47;;;;;;;23.44;62.87;98890.63;5109176;28;20043;-82
2023/08/02 00:33:56;;;;;;;4.85;3.25;;;;;;;23.64;62.54;98908.69;5110988;28;20058;-82
2023/08/02 00:36:21;;;;;;;5.30;2.97;;;;;;;23.60;62.38;98891.94;5110569;28;20053;-82
2023/08/02 00:38:47;;;;;;;4.38;3.55;;;;;;;23.57;62.47;98891.31;5110597;28;20031;-84
2023/08/02 00:41:12;;;;;;;5.63;3.50;;;;;;;23.69;62.32;98901.09;5110286;28;20142;-82
2023/08/02 00:43:43;;;;;;;5.82;4.63;;;;;;;23.38;62.21;98857.00;5110079;28;20027;-83
2023/08/02 00:46:12;;;;;;;5.35;4.32;;;;;;;23.67;62.84;98937.22;5110659;28;20421;-83
2023/08/02 00:48:40;;;;;;;5.18;3.88;;;;;;;23.43;63.22;98895.13;5110735;28;20026;-83
2023/08/02 00:51:08;;;;;;;5.40;3.50;;;;;;;;;;5110367;28;20027;-83
2023/08/02 00:53:34;;;;;;;8.23;4.78;;;;;;;23.39;63.43;98916.06;5109294;28;20047;-82
2023/08/02 00:56:00;;;;;;;7.28;4.55;;;;;;;23.42;63.64;98923.06;5109880;28;20582;-83
2023/08/02 00:58:25;;;;;;;4.40;3.42;;;;;;;23.28;63.46;98916.09;5110882;28;20134;-83
2023/08/02 01:00:51;;;;;;;7.57;3.58;;;;;;;23.33;63.44;98918.41;5110744;28;20070;-83
2023/08/02 01:03:16;;;;;;;6.30;3.80;;;;;;;23.42;63.54;98934.66;5109321;28;20081;-83
2023/08/02 01:05:58;;;;;;;4.90;4.35;;;;;;;23.46;63.58;98942.50;5110746;28;20032;-84
2023/08/02 01:08:31;;;;;;;4.68;3.45;;;;;;;23.18;64.63;98932.09;5109536;28;20405;-83
2023/08/02 01:11:14;;;;;;;4.53;3.08;;;;;;;23.39;63.96;98948.34;5110062;28;20024;-83
2023/08/02 01:13:50;;;;;;;4.85;3.10;;;;;;;22.66;64.25;98907.44;5110739;28;20023;-82
2023/08/02 01:16:17;;;;;;;6.15;3.55;;;;;;;22.69;64.51;98944.84;5110401;28;20030;-83
2023/08/02 01:18:43;;;;;;;6.97;4.72;;;;;;;22.65;64.93;98942.50;5109138;28;20532;-82
2023/08/02 01:21:09;;;;;;;6.03;3.10;;;;;;;22.29;64.80;98879.81;5109990;28;20122;-83
2023/08/02 01:23:34;;;;;;;5.32;4.18;;;;;;;22.61;65.95;98955.31;5110200;28;20051;-83
2023/08/02 01:26:02;;;;;;;6.22;4.00;;;;;;;22.54;65.94;98916.44;5110447;28;20386;-83
2023/08/02 01:28:32;;;;;;;3.85;2.75;;;;;;;22.73;65.31;98928.47;5109718;28;20036;-82
2023/08/02 01:31:00;;;;;;;6.32;3.03;;;;;;;22.75;65.03;98926.50;5111032;28;20042;-82
2023/08/02 01:33:26;;;;;;;7.50;3.97;;;;;;;22.70;65.27;98933.09;5110001;28;20016;-83
2023/08/02 01:35:51;;;;;;;6.47;4.03;;;;;;;22.81;65.48;98947.53;5109184;28;20497;-82
2023/08/02 01:38:17;;;;;;;4.63;4.07;;;;;;;22.98;65.22;98949.75;5109711;28;20072;-82
2023/08/02 01:40:43;;;;;;;6.43;3.08;;;;;;;22.80;66.01;98953.88;5110084;28;20032;-81
2023/08/02 01:43:08;;;;;;;3.75;2.17;;;;;;;22.62;66.23;98922.09;5109849;28;20131;-82
2023/08/02 01:45:34;;;;;;;5.63;3.00;;;;;;;22.82;66.19;98968.09;5111093;28;20055;-83
2023/08/02 01:48:01;;;;;;;6.35;3.17;;;;;;;22.92;66.15;98976.28;5113731;28;20034;-81
2023/08/02 01:50:26;;;;;;;10.88;5.47;;;;;;;22.73;65.80;98944.59;5113612;28;20787;-81
2023/08/02 01:52:52;;;;;;;5.70;4.65;;;;;;;22.69;66.41;98947.53;5113553;28;20130;-81
2023/08/02 01:55:18;;;;;;;8.05;4.43;;;;;;;22.67;66.69;98948.59;5114001;28;20435;-81
2023/08/02 01:57:44;;;;;;;6.43;3.35;;;;;;;22.65;66.71;98956.78;5113861;28;20031;-81
2023/08/02 02:00:10;;;;;;;5.28;3.58;;;;;;;22.90;66.16;98979.09;5113218;27;20043;-81
2023/08/02 02:02:36;;;;;;;6.55;4.45;;;;;;;22.88;65.85;98962.22;5112209;28;20048;-82
2023/08/02 02:05:01;;;;;;;5.63;3.60;;;;;;;22.98;65.70;98973.13;5113083;28;20093;-81
2023/08/02 02:07:28;;;;;;;6.65;4.32;;;;;;;22.82;65.74;98963.56;5113625;28;20577;-81
2023/08/02 02:09:53;;;;;;;5.85;3.85;;;;;;;22.89;65.37;98966.63;5113931;28;20028;-81
2023/08/02 02:12:19;;;;;;;8.15;4.47;;;;;;;22.54;66.06;98959.44;5114147;28;20034;-81
2023/08/02 02:14:44;;;;;;;5.10;3.95;;;;;;;22.53;66.23;98968.47;5113400;28;20095;-81
2023/08/02 02:17:10;;;;;;;6.43;3.88;;;;;;;22.56;66.01;98965.56;5113338;28;20123;-81
2023/08/02 02:19:35;;;;;;;7.05;4.30;;;;;;;22.45;65.74;98925.22;5113391;28;20069;-80
2023/08/02 02:22:01;;;;;;;4.55;3.08;;;;;;;22.69;65.45;98965.47;5113307;28;20024;-80
2023/08/02 02:24:26;;;;;;;7.38;3.55;;;;;;;22.50;65.93;98956.13;5113657;27;20050;-81
2023/08/02 02:26:51;;;;;;;6.38;3.60;;;;;;;22.69;65.21;99001.28;5113208;28;20019;-81
2023/08/02 02:29:17;;;;;;;9.52;4.28;;;;;;;22.39;65.45;98923.00;5113569;28;20038;-82
2023/08/02 02:31:42;;;;;;;6.55;4.38;;;;;;;22.51;65.42;98967.75;5113258;28;20058;-82
2023/08/02 02:34:08;;;;;;;6.53;3.92;;;;;;;22.32;65.40;98977.19;5112669;28;20035;-81
2023/08/02 02:36:33;;;;;;;7.97;3.72;;;;;;;22.52;65.84;98994.50;5112885;28;20039;-81
2023/08/02 02:38:59;;;;;;;6.38;3.97;;;;;;;22.34;65.28;98969.03;5113493;28;20165;-82
2023/08/02 02:41:24;;;;;;;5.10;3.30;;;;;;;22.28;65.33;98974.81;5112564;28;20173;-82
2023/08/02 02:43:50;;;;;;;6.32;3.67;;;;;;;22.41;65.61;99004.34;5108527;28;20615;-81
2023/08/02 02:46:15;;;;;;;6.03;4.20;;;;;;;22.30;65.70;98970.19;5097733;28;20036;-82
2023/08/02 02:48:40;;;;;;;7.35;4.72;;;;;;;22.33;66.28;98999.53;5097991;28;20032;-82
2023/08/02 02:51:06;;;;;;;6.53;3.65;;;;;;;22.35;66.26;98992.22;5099302;28;20024;-86
2023/08/02 02:53:31;;;;;;;7.45;4.03;;;;;;;22.44;66.01;98994.19;5100451;28;20520;-82
2023/08/02 02:55:57;;;;;;;3.97;2.70;;;;;;;22.39;65.84;98974.06;5095486;28;20038;-87
2023/08/02 02:58:22;;;;;;;5.25;3.88;;;;;;;22.61;66.09;99032.41;5099757;27;20024;-83
2023/08/02 03:00:48;;;;;;;6.47;5.10;;;;;;;22.48;66.37;99009.13;5100263;28;20058;-86
2023/08/02 03:03:13;;;;;;;7.72;4.25;;;;;;;22.41;66.50;99001.66;5100029;28;20168;-83
2023/08/02 03:05:39;;;;;;;6.40;3.60;;;;;;;22.33;67.15;98986.94;5095845;28;20028;-83
2023/08/02 03:08:04;;;;;;;5.10;3.78;;;;;;;22.18;67.49;98966.56;5097160;28;20016;-83
2023/08/02 03:10:30;;;;;;;5.60;3.55;;;;;;;22.38;67.47;98988.44;5102282;28;20119;-86
2023/08/02 03:12:55;;;;;;;9.30;4.07;;;;;;;22.40;67.36;98991.88;5099827;28;20052;-82
2023/08/02 03:15:21;;;;;;;5.35;3.55;;;;;;;22.51;67.28;99008.06;5096131;28;21814;-82
2023/08/02 03:17:46;;;;;;;4.93;3.40;;;;;;;22.58;67.40;99011.97;5102341;28;20450;-82
2023/08/02 03:20:12;;;;;;;9.88;3.97;;;;;;;22.29;67.36;98974.72;5096904;28;20024;-83
2023/08/02 03:22:38;;;;;;;5.70;3.30;;;;;;;22.35;67.24;98978.78;5103023;28;20486;-82
2023/08/02 03:25:04;;;;;;;6.25;3.95;;;;;;;22.35;67.84;99002.97;5099269;28;20258;-86
2023/08/02 03:27:29;;;;;;;5.88;4.28;;;;;;;22.33;68.11;99011.13;5096238;28;20686;-81
2023/08/02 03:29:56;;;;;;;6.43;3.63;;;;;;;22.35;68.12;99009.22;5099814;28;20109;-86
2023/08/02 03:32:21;;;;;;;6.93;4.43;;;;;;;22.32;67.79;98995.13;5100167;28;20489;-83
2023/08/02 03:34:47;;;;;;;6.32;4.28;;;;;;;22.43;67.49;99000.56;5101379;28;20131;-83
2023/08/02 03:37:12;;;;;;;7.13;4.40;;;;;;;22.53;67.46;99019.53;5097096;28;20032;-83
2023/08/02 03:39:38;;;;;;;6.43;4.07;;;;;;;22.28;67.76;98991.78;5098336;28;20035;-82
2023/08/02 03:42:03;;;;;;;7.65;4.22;;;;;;;22.42;67.88;98995.31;5097395;28;20024;-84
2023/08/02 03:44:29;;;;;;;8.60;4.18;;;;;;;22.39;68.17;99001.75;5096951;28;20034;-82
2023/08/02 03:46:54;;;;;;;12.02;5.13;;;;;;;22.57;68.02;99017.47;5097485;28;20050;-81
2023/08/02 03:49:20;;;;;;;6.32;4.75;;;;;;;22.45;68.63;99021.94;5093650;28;20055;-81
2023/08/02 03:51:46;;;;;;;5.97;4.40;;;;;;;22.44;68.80;99021.06;5104968;28;20031;-81
2023/08/02 03:54:12;;;;;;;7.22;4.20;;;;;;;22.32;68.65;98987.94;5096261;28;20051;-82
2023/08/02 03:56:37;;;;;;;9.10;3.25;;;;;;;22.33;70.25;99012.97;5107557;28;20417;-83
2023/08/02 03:59:03;;;;;;;4.13;3.28;;;;;;;22.18;70.10;98983.56;5111225;27;20110;-82
2023/08/02 04:01:28;;;;;;;5.53;3.97;;;;;;;22.48;69.81;99008.28;5111386;28;20042;-82
2023/08/02 04:03:54;;;;;;;9.63;4.80;;;;;;;22.48;69.99;99013.66;5111407;28;20031;-82
2023/08/02 04:06:19;;;;;;;6.63;4.70;;;;;;;22.16;70.18;98968.53;5111403;28;20031;-81
2023/08/02 04:08:46;;;;;;;5.35;3.88;;;;;;;22.53;69.92;98988.13;5110538;28;20061;-82
2023/08/02 04:11:11;;;;;;;7.03;4.32;;;;;;;22.68;71.04;99018.38;5111397;28;20028;-82
2023/08/02 04:13:37;;;;;;;6.60;4.13;;;;;;;22.60;70.59;98993.91;5101763;28;20031;-82
2023/08/02 04:16:04;;;;;;;5.28;4.00;;;;;;;22.82;70.45;99028.06;5109101;28;20027;-83
2023/08/02 04:18:29;;;;;;;5.53;3.72;;;;;;;22.77;69.96;99006.06;5108545;28;20159;-82
2023/08/02 04:20:55;;;;;;;5.72;3.95;;;;;;;23.03;69.04;99012.13;5108927;27;20031;-86
2023/08/02 04:23:20;;;;;;;5.90;3.33;;;;;;;23.04;68.81;98994.16;5102305;28;20039;-82
2023/08/02 04:25:46;;;;;;;6.53;3.42;;;;;;;22.96;68.27;98984.00;5104617;28;20128;-81
2023/08/02 04:28:11;;;;;;;6.07;3.17;;;;;;;23.07;67.78;98996.59;5110557;28;20085;-81
2023/08/02 04:30:36;;;;;;;4.85;3.90;;;;;;;23.44;67.49;99031.41;5109809;28;20473;-83
2023/08/02 04:33:02;;;;;;;6.50;4.38;;;;;;;23.39;66.99;98991.41;5110580;28;20485;-82
2023/08/02 04:35:28;;;;;;;7.32;4.55;;;;;;;23.27;66.10;99019.28;5110403;28;20913;-81
2023/08/02 04:37:54;;;;;;;8.77;4.63;;;;;;;23.30;66.74;99021.75;5110596;28;20024;-82
2023/08/02 04:40:19;;;;;;;5.07;4.20;;;;;;;23.53;66.30;99011.84;5109901;28;20469;-82
2023/08/02 04:42:47;;;;;;;5.60;4.30;;;;;;;23.67;65.15;98999.97;5110194;28;20507;-82
2023/08/02 04:45:14;;;;;;;15.75;4.15;;;;;;;23.77;64.71;99005.47;5110699;28;20034;-83
2023/08/02 04:47:39;;;;;;;5.60;3.28;;;;;;;23.82;65.30;99014.03;5110436;28;20049;-82
2023/08/02 04:50:06;;;;;;;4.22;3.30;;;;;;;23.40;65.85;98974.31;5109144;28;20481;-83
2023/08/02 04:52:34;;;;;;;11.68;5.15;;;;;;;23.70;64.52;98983.56;5103553;27;20040;-83
2023/08/02 04:55:00;;;;;;;10.48;5.00;;;;;;;23.53;65.65;98992.16;5096449;28;20044;-88
2023/08/02 04:57:28;;;;;;;7.72;2.65;;;;;;;23.67;65.58;98981.13;5097510;28;20475;-83
2023/08/02 04:59:53;;;;;;;5.82;4.50;;;;;;;24.03;65.04;99000.69;5098501;28;20031;-84
2023/08/02 05:02:21;;;;;;;6.60;3.65;;;;;;;24.36;63.87;99012.38;5104929;28;20878;-83
2023/08/02 05:04:52;;;;;;;4.90;3.47;;;;;;;24.47;63.89;99009.63;5107257;28;20096;-82
2023/08/02 05:07:18;;;;;;;7.32;4.90;;;;;;;24.67;62.98;99026.00;5103948;28;20032;-88
2023/08/02 05:09:43;;;;;;;8.35;4.20;;;;;;;24.73;63.21;99030.88;5095843;28;20036;-85
2023/08/02 05:12:09;;;;;;;6.13;3.42;;;;;;;24.61;63.00;98994.19;5095034;28;20467;-86
2023/08/02 05:14:34;;;;;;;5.88;4.28;;;;;;;24.80;62.35;99013.19;5102394;28;20058;-85
2023/08/02 05:17:00;;;;;;;6.25;3.88;;;;;;;24.99;62.56;99004.41;5096491;28;20553;-84
2023/08/02 05:19:25;;;;;;;12.00;3.42;;;;;;;25.16;61.82;98973.25;5095451;28;20039;-84
2023/08/02 05:21:52;;;;;;;7.00;3.88;;;;;;;25.61;61.10;99003.59;5096919;28;20032;-83
2023/08/02 05:24:17;;;;;;;6.43;4.03;;;;;;;25.60;59.95;99035.16;5096387;28;20020;-83
2023/08/02 05:26:43;;;;;;;11.60;4.05;;;;;;;25.50;60.41;99027.00;5097884;28;20023;-91
2023/08/02 05:29:08;;;;;;;5.32;3.17;;;;;;;25.38;60.62;99001.09;5101629;28;20048;-85
2023/08/02 05:31:34;;;;;;;6.13;3.63;;;;;;;25.44;60.17;98987.06;5099231;28;20024;-87
2023/08/02 05:33:59;;;;;;;5.10;3.17;;;;;;;25.78;59.18;98984.06;5108533;28;20028;-87
2023/08/02 05:36:25;;;;;;;4.15;2.80;;;;;;;26.10;59.56;99026.25;5101552;28;20023;-84
2023/08/02 05:38:50;;;;;;;5.47;4.38;;;;;;;26.18;58.36;99023.72;5101873;28;20508;-85
2023/08/02 05:41:16;;;;;;;4.90;3.63;;;;;;;25.71;58.50;98983.75;5098641;28;20021;-86
2023/08/02 05:43:44;;;;;;;4.95;3.22;;;;;;;26.02;58.11;99039.59;5101403;28;20027;-90
2023/08/02 05:46:10;;;;;;;4.65;3.15;;;;;;;25.94;59.40;99034.00;5098407;28;20023;-89
2023/08/02 05:48:36;;;;;;;6.63;4.00;;;;;;;26.49;58.21;99066.84;5103421;28;20038;-88
2023/08/02 05:51:01;;;;;;;4.95;3.13;;;;;;;26.63;57.17;99019.63;5132153;27;20040;-88
2023/08/02 05:53:27;;;;;;;13.05;6.68;;;;;;;26.62;57.60;99032.28;5097211;28;20048;-88
2023/08/02 05:55:54;;;;;;;9.07;4.72;;;;;;;26.56;58.12;99037.44;5096966;28;20039;-87
2023/08/02 05:58:20;;;;;;;4.75;2.75;;;;;;;27.09;57.26;99060.50;5100147;28;20122;-84
2023/08/02 06:00:45;;;;;;;8.75;3.95;;;;;;;27.51;56.11;99060.16;5095292;28;20026;-85
2023/08/02 06:03:10;;;;;;;8.52;4.30;;;;;;;27.72;55.50;99038.28;5093655;28;20062;-85
2023/08/02 06:05:36;;;;;;;5.65;3.30;;;;;;;28.02;54.56;99034.47;5127391;27;20101;-92
2023/08/02 06:08:02;;;;;;;4.97;3.55;;;;;;;28.22;53.69;99047.91;5094873;28;20024;-90
2023/08/02 06:10:27;;;;;;;6.00;3.83;;;;;;;28.15;53.00;99052.25;5098115;28;20492;-89
2023/08/02 06:12:52;;;;;;;4.35;3.35;;;;;;;27.78;53.37;99018.72;5100843;28;20493;-90
2023/08/02 06:15:19;;;;;;;6.55;3.80;;;;;;;28.30;53.28;99053.44;5095158;28;20093;-88
2023/08/02 06:17:45;;;;;;;6.47;3.78;;;;;;;28.25;52.88;99031.31;5089145;28;20032;-86
2023/08/02 06:20:11;;;;;;;5.65;3.60;;;;;;;28.47;52.75;99030.06;5089612;28;20119;-89
2023/08/02 06:22:36;;;;;;;5.45;3.28;;;;;;;28.67;52.56;99055.22;5101094;28;20031;-90
2023/08/02 06:25:02;;;;;;;5.03;2.95;;;;;;;28.54;52.36;99033.00;5108338;28;20028;-89
2023/08/02 06:27:27;;;;;;;6.82;4.25;;;;;;;28.38;52.31;99025.56;5103452;28;20524;-89
2023/08/02 06:29:52;;;;;;;5.22;3.45;;;;;;;28.76;50.51;99028.97;5097387;28;20474;-90
2023/08/02 06:32:18;;;;;;;8.18;4.00;;;;;;;28.59;50.63;98995.41;5103251;28;20047;-88
2023/08/02 06:34:43;;;;;;;3.92;2.85;;;;;;;29.27;50.58;99011.09;5101411;28;20398;-88
2023/08/02 06:37:09;;;;;;;4.50;2.63;;;;;;;29.59;48.38;98985.13;5107395;28;20035;-88
2023/08/02 06:39:34;;;;;;;4.10;2.53;;;;;;;29.75;47.37;99013.38;5110528;28;20051;-86
2023/08/02 06:42:00;;;;;;;3.80;3.10;;;;;;;29.65;48.19;99037.97;5104014;28;20073;-89
2023/08/02 06:44:26;;;;;;;4.28;2.72;;;;;;;29.45;49.02;99021.88;5100162;28;20028;-89
2023/08/02 06:46:51;;;;;;;4.63;2.70;;;;;;;29.33;49.07;99044.91;5094537;28;20024;-82
2023/08/02 06:49:16;;;;;;;7.88;3.33;;;;;;;29.73;48.73;99031.72;5099557;27;20065;-87
2023/08/02 06:51:42;;;;;;;4.90;2.38;;;;;;;29.95;47.62;99028.47;5104600;27;20028;-82
2023/08/02 06:54:07;;;;;;;5.72;3.05;;;;;;;29.84;48.21;99047.75;5101379;27;20059;-82
2023/08/02 06:56:33;;;;;;;3.38;2.47;;;;;;;29.79;47.33;99028.34;5092562;28;20028;-83
2023/08/02 06:58:58;;;;;;;4.57;3.33;;;;;;;29.37;48.28;99008.25;5092595;28;20082;-82
2023/08/02 07:01:24;;;;;;;4.32;2.55;;;;;;;29.40;50.20;99031.56;5092264;28;20091;-83
2023/08/02 07:03:49;;;;;;;5.07;2.63;;;;;;;29.64;49.75;99037.13;5096789;28;20027;-83
2023/08/02 07:06:17;;;;;;;3.85;2.63;;;;;;;29.79;48.05;99048.22;5098349;28;20111;-84
2023/08/02 07:08:43;;;;;;;4.70;2.95;;;;;;;29.48;48.91;99049.75;5092178;28;20028;-83
2023/08/02 07:11:09;;;;;;;2.55;2.20;;;;;;;29.65;48.36;99032.53;5109373;28;20034;-83
2023/08/02 07:13:36;;;;;;;3.58;2.55;;;;;;;29.92;49.83;99049.66;5101775;28;20028;-86
2023/08/02 07:16:02;;;;;;;3.15;2.20;;;;;;;30.18;47.39;99055.03;5100371;28;20038;-83
2023/08/02 07:18:28;;;;;;;3.47;2.55;;;;;;;30.43;48.53;99042.41;5091387;28;20040;-84
2023/08/02 07:20:53;;;;;;;7.97;2.10;;;;;;;30.89;48.04;99031.91;5101861;28;20031;-83
2023/08/02 07:23:19;;;;;;;15.90;3.15;;;;;;;31.08;45.34;99021.72;5110493;28;20024;-85
2023/08/02 07:25:45;;;;;;;4.18;2.85;;;;;;;31.30;44.18;99020.16;5101979;28;20040;-84
2023/08/02 07:28:10;;;;;;;3.75;2.33;;;;;;;31.33;44.27;99019.81;5098606;28;20111;-87
2023/08/02 07:30:37;;;;;;;5.20;3.08;;;;;;;31.33;43.40;99013.53;5092024;28;20116;-89
2023/08/02 07:33:03;;;;;;;4.10;2.78;;;;;;;30.35;44.56;99015.13;5111206;28;20059;-83
2023/08/02 07:35:28;;;;;;;5.88;3.10;;;;;;;29.69;47.41;99006.75;5112381;28;20558;-83
2023/08/02 07:37:54;;;;;;;5.88;3.00;;;;;;;30.20;46.17;99005.91;5109611;28;20039;-83
2023/08/02 07:40:19;;;;;;;3.47;2.55;;;;;;;30.68;44.86;99005.19;5105422;28;20035;-82
2023/08/02 07:42:45;;;;;;;6.25;3.38;;;;;;;30.93;45.68;98996.19;5108356;28;20034;-84
2023/08/02 07:45:11;;;;;;;6.50;3.45;;;;;;;30.60;44.38;99026.09;5100176;28;20074;-84
2023/08/02 07:47:38;;;;;;;5.13;2.45;;;;;;;30.98;44.30;99023.78;5108976;27;20031;-84
2023/08/02 07:50:05;;;;;;;7.18;3.63;;;;;;;31.58;44.18;99007.00;5111459;28;20027;-84
2023/08/02 07:52:31;;;;;;;4.13;2.90;;;;;;;31.35;43.04;98995.13;5112104;28;20031;-84
2023/08/02 07:54:56;;;;;;;5.53;3.33;;;;;;;31.53;40.60;99003.09;5111673;28;20058;-83
2023/08/02 07:57:30;;;;;;;7.47;3.65;;;;;;;32.22;39.74;99036.06;5091422;28;20036;-82
2023/08/02 07:59:57;;;;;;;5.13;3.17;;;;;;;32.42;40.17;99039.19;5123666;27;20060;-83
2023/08/02 08:02:23;;;;;;;5.93;3.83;;;;;;;32.34;39.80;99001.06;5091000;28;20036;-86
2023/08/02 08:04:48;;;;;;;6.50;2.75;;;;;;;31.78;40.96;98974.72;5091432;28;20028;-83
2023/08/02 08:07:14;;;;;;;4.10;2.70;;;;;;;32.42;39.82;99008.34;5098031;28;20030;-84
2023/08/02 08:09:39;;;;;;;6.85;3.65;;;;;;;32.95;39.04;99025.72;5111085;28;20843;-83
2023/08/02 08:12:06;;;;;;;6.03;3.65;;;;;;;32.72;37.44;98989.38;5111399;28;20019;-83
2023/08/02 08:14:33;;;;;;;8.30;3.25;;;;;;;33.50;38.41;99017.34;5110798;28;20492;-83
2023/08/02 08:16:59;;;;;;;6.60;4.13;;;;;;;33.43;38.71;99016.41;5093886;28;20020;-83
2023/08/02 08:19:27;;;;;;;4.20;2.85;;;;;;;33.22;37.76;99003.47;5091439;28;20035;-83
2023/08/02 08:21:53;;;;;;;4.78;3.10;;;;;;;33.42;37.18;99009.25;5105469;28;20042;-83
2023/08/02 08:24:18;;;;;;;4.00;2.80;;;;;;;33.76;36.16;98975.91;5109493;28;20027;-82
2023/08/02 08:26:44;;;;;;;5.45;3.22;;;;;;;34.17;36.13;99012.78;5111578;28;20039;-81
2023/08/02 08:29:10;;;;;;;4.68;3.03;;;;;;;34.36;35.10;99009.47;5111219;28;20083;-84
2023/08/02 08:31:36;;;;;;;8.35;3.83;;;;;;;34.47;35.06;99012.75;5107832;28;20034;-84
2023/08/02 08:34:01;;;;;;;5.78;3.13;;;;;;;33.92;34.73;98976.72;5093337;28;20490;-84
2023/08/02 08:36:29;;;;;;;3.97;3.17;;;;;;;34.00;35.04;98974.72;5107163;28;20038;-85
2023/08/02 08:38:56;;;;;;;5.68;3.00;;;;;;;33.89;34.94;98989.75;5111033;28;20477;-85
2023/08/02 08:41:21;;;;;;;5.80;3.03;;;;;;;33.62;35.25;99012.28;5110859;28;20029;-86
2023/08/02 08:43:47;;;;;;;4.57;2.97;;;;;;;33.65;36.80;98995.50;5109427;28;20030;-85
2023/08/02 08:46:13;;;;;;;4.20;2.95;;;;;;;34.16;35.13;98984.59;5093711;28;20406;-85
2023/08/02 08:48:39;;;;;;;6.47;3.47;;;;;;;33.83;36.46;98989.66;5090375;28;20486;-86
2023/08/02 08:51:05;;;;;;;4.32;3.13;;;;;;;34.36;35.41;98994.94;5090765;28;20043;-86
2023/08/02 08:53:36;;;;;;;5.25;2.70;;;;;;;34.35;34.88;98995.97;5090116;28;20424;-84
2023/08/02 08:56:04;;;;;;;5.70;2.95;;;;;;;34.66;33.85;98940.91;5101417;28;20091;-87
2023/08/02 08:58:33;;;;;;;4.53;2.80;;;;;;;34.80;33.88;98958.31;5117334;28;20042;-87
2023/08/02 09:01:03;;;;;;;3.65;2.38;;;;;;;34.53;34.33;98974.47;5116914;27;20032;-88
2023/08/02 09:03:29;;;;;;;6.32;4.18;;;;;;;34.53;34.16;98968.16;5100969;28;20035;-87
2023/08/02 09:05:59;;;;;;;3.63;2.53;;;;;;;34.79;33.73;98940.22;5107821;28;20022;-87
2023/08/02 09:08:25;;;;;;;5.85;3.33;;;;;;;35.39;33.81;98940.66;5108189;28;20426;-89
2023/08/02 09:10:50;;;;;;;6.65;2.58;;;;;;;35.09;33.28;98987.41;5109072;28;20023;-88
2023/08/02 09:13:23;;;;;;;3.55;2.28;;;;;;;35.00;32.54;98963.13;5095270;28;20063;-90
2023/08/02 09:16:16;;;;;;;4.22;2.47;;;;;;;34.90;33.33;98971.69;5094311;28;20059;-89
2023/08/02 09:18:47;;;;;;;4.45;2.95;;;;;;;34.42;33.53;98933.97;5099844;28;20051;-90
2023/08/02 09:21:19;;;;;;;5.78;3.08;;;;;;;34.87;33.85;98969.34;5100584;28;20023;-90
2023/08/02 09:23:46;;;;;;;4.97;3.10;;;;;;;34.64;32.72;98925.72;5107609;28;20085;-87
2023/08/02 09:26:17;;;;;;;4.70;2.42;;;;;;;34.48;34.49;98935.91;5110030;28;20478;-85
2023/08/02 09:29:03;;;;;;;3.63;2.28;;;;;;;34.44;32.94;98975.66;5109116;28;20722;-85
2023/08/02 09:31:32;;;;;;;4.70;2.88;;;;;;;34.52;33.21;98974.69;5103366;28;20078;-85
2023/08/02 09:33:58;;;;;;;4.68;2.83;;;;;;;34.58;33.26;98943.78;5107502;28;20039;-84
2023/08/02 09:36:32;;;;;;;8.73;4.10;;;;;;;34.51;34.17;98970.25;5109142;28;20089;-84
2023/08/02 09:39:03;;;;;;;6.75;2.88;;;;;;;34.96;33.59;98965.41;5109334;28;20038;-86
2023/08/02 09:41:29;;;;;;;5.03;2.65;;;;;;;35.11;33.05;98940.63;5109045;28;20032;-84
2023/08/02 09:43:55;;;;;;;4.72;2.65;;;;;;;35.45;32.59;98961.78;5109438;28;20028;-84
2023/08/02 09:46:29;;;;;;;4.18;3.00;;;;;;;35.40;34.06;98960.69;5109200;28;20038;-82
2023/08/02 09:48:59;;;;;;;4.60;2.67;;;;;;;35.28;32.70;98949.44;5109391;28;20042;-84
2023/08/02 09:51:41;;;;;;;5.45;3.28;;;;;;;35.59;33.65;98945.38;5098564;28;20024;-84
2023/08/02 09:54:07;;;;;;;4.63;3.28;;;;;;;35.34;33.54;98954.09;5092127;28;20051;-87
2023/08/02 09:56:37;;;;;;;4.05;3.03;;;;;;;35.24;32.24;98945.38;5101397;28;20413;-84
2023/08/02 09:59:05;;;;;;;8.90;3.65;;;;;;;35.32;33.12;98951.56;5095255;28;20024;-84
2023/08/02 10:01:32;;;;;;;4.75;3.78;;;;;;;35.67;32.74;98943.31;5093276;28;20063;-85
2023/08/02 10:04:02;;;;;;;4.25;2.85;;;;;;;35.41;32.93;98938.53;5094390;28;20099;-87
2023/08/02 10:06:47;;;;;;;5.55;2.80;;;;;;;35.11;32.69;98915.97;5094340;28;20027;-86
2023/08/02 10:09:23;;;;;;;3.58;2.25;;;;;;;35.31;34.81;98932.56;5134772;27;20035;-87
2023/08/02 10:11:57;;;;;;;5.22;3.08;;;;;;;34.87;33.86;98914.56;5098983;28;20039;-84
2023/08/02 10:14:23;;;;;;;13.15;4.82;;;;;;;34.64;32.77;98915.63;5094598;28;20481;-85
2023/08/02 10:16:51;;;;;;;3.53;2.95;;;;;;;35.33;32.63;98919.53;5098376;28;20098;-85
2023/08/02 10:19:17;;;;;;;2.90;2.10;;;;;;;35.68;33.11;98922.22;5096466;28;20043;-85
2023/08/02 10:21:44;;;;;;;5.43;2.50;;;;;;;35.81;33.54;98908.59;5097170;28;20031;-86
2023/08/02 10:24:13;;;;;;;7.88;3.10;;;;;;;35.83;30.36;98909.22;5095981;28;20052;-86
2023/08/02 10:26:39;;;;;;;4.65;3.28;;;;;;;35.67;30.88;98877.50;5098197;28;20096;-87
2023/08/02 10:29:07;;;;;;;3.72;2.50;;;;;;;35.31;32.17;98886.84;5094832;28;20036;-85
2023/08/02 10:31:32;;;;;;;5.53;2.67;;;;;;;35.49;33.91;98894.50;5096143;28;20409;-85
2023/08/02 10:33:58;;;;;;;5.20;3.35;;;;;;;35.91;31.10;98899.13;5093187;28;20026;-86
2023/08/02 10:36:23;;;;;;;2.78;2.00;;;;;;;35.80;29.67;98875.88;5093239;28;20064;-87
2023/08/02 10:38:53;;;;;;;4.15;2.42;;;;;;;36.43;30.57;98904.97;5094756;28;20034;-86
2023/08/02 10:41:25;;;;;;;3.88;2.67;;;;;;;36.30;30.51;98859.09;5094779;28;20051;-86
2023/08/02 10:44:08;;;;;;;4.38;1.90;;;;;;;36.85;29.83;98886.38;5094151;28;20063;-86
2023/08/02 10:46:33;;;;;;;3.30;2.30;;;;;;;36.70;29.71;98865.44;5096727;28;20027;-85
2023/08/02 10:49:31;;;;;;;3.63;1.70;;;;;;;36.69;29.61;98879.41;5093069;28;20024;-86
2023/08/02 10:51:57;;;;;;;2.90;2.03;;;;;;;36.89;29.96;98860.16;5097779;28;20075;-85
2023/08/02 10:54:25;;;;;;;3.17;1.90;;;;;;;36.44;29.32;98840.75;5097423;28;20529;-87
2023/08/02 10:56:51;;;;;;;12.20;2.80;;;;;;;36.23;30.97;98861.81;5097684;28;20031;-85
2023/08/02 10:59:40;;;;;;;3.42;2.13;;;;;;;36.62;29.86;98865.66;5097235;28;20028;-84
2023/08/02 11:02:07;;;;;;;4.28;2.75;;;;;;;36.65;29.67;98861.66;5096879;28;20020;-85
2023/08/02 11:04:37;;;;;;;3.85;2.83;;;;;;;36.58;29.67;98849.81;5094756;28;20176;-83
2023/08/02 11:07:19;;;;;;;9.27;2.70;;;;;;;36.52;27.88;98860.59;5093515;28;20043;-84
2023/08/02 11:09:45;;;;;;;3.75;2.38;;;;;;;36.18;28.47;98839.66;5096425;28;20120;-86
2023/08/02 11:12:13;;;;;;;20.85;2.95;;;;;;;35.78;28.70;98834.13;5093479;28;21517;-85
2023/08/02 11:14:39;;;;;;;3.85;2.53;;;;;;;35.71;28.89;98823.06;5097841;28;20028;-83
2023/08/02 11:17:05;;;;;;;1.75;1.35;;;;;;;35.77;29.15;98815.94;5094846;28;20039;-83
2023/08/02 11:19:31;;;;;;;4.60;2.85;;;;;;;36.17;29.14;98847.03;5094014;28;20023;-83
2023/08/02 11:21:59;;;;;;;4.95;2.95;;;;;;;36.21;29.41;98840.06;5096475;28;20032;-85
2023/08/02 11:24:25;;;;;;;4.20;2.38;;;;;;;35.74;28.95;98797.97;5101387;28;20100;-85
2023/08/02 11:26:55;;;;;;;4.47;2.58;;;;;;;35.90;28.83;98813.25;5097107;28;20035;-85
2023/08/02 11:29:21;;;;;;;3.70;2.38;;;;;;;35.96;29.54;98837.09;5094043;28;20035;-84
2023/08/02 11:31:48;;;;;;;2.63;1.67;;;;;;;36.12;27.99;98837.75;5099843;28;20152;-86
2023/08/02 11:34:18;;;;;;;3.08;1.65;;;;;;;36.01;27.82;98823.59;5097842;28;20028;-84